createdAt,value
2023-03-19T00:00:14.302Z,3.70
2023-03-19T00:01:14.269Z,3.68
2023-03-19T00:02:17.811Z,3.62
2023-03-19T00:03:14.320Z,3.55
2023-03-19T00:04:14.246Z,3.48
2023-03-19T00:05:14.241Z,3.47
2023-03-19T00:06:14.239Z,3.50
2023-03-19T00:07:14.197Z,3.59
2023-03-19T00:08:14.227Z,3.62
2023-03-19T00:09:14.173Z,3.70
2023-03-19T00:10:14.162Z,3.81
2023-03-19T00:11:14.151Z,3.81
2023-03-19T00:12:14.163Z,3.78
2023-03-19T00:13:14.185Z,3.76
2023-03-19T00:14:14.120Z,3.73
2023-03-19T00:15:14.442Z,3.77
2023-03-19T00:16:14.160Z,3.74
2023-03-19T00:17:14.101Z,3.70
2023-03-19T00:18:14.104Z,3.68
2023-03-19T00:19:14.075Z,3.63
2023-03-19T00:20:14.049Z,3.62
2023-03-19T00:21:14.041Z,3.60
2023-03-19T00:22:14.043Z,3.59
2023-03-19T00:23:14.226Z,3.59
2023-03-19T00:24:13.998Z,3.58
2023-03-19T00:25:14.004Z,3.53
2023-03-19T00:26:13.993Z,3.55
2023-03-19T00:27:13.970Z,3.50
2023-03-19T00:28:14.009Z,3.48
2023-03-19T00:29:13.948Z,3.45
2023-03-19T00:30:13.967Z,3.45
2023-03-19T00:31:13.982Z,3.48
2023-03-19T00:32:13.917Z,3.56
2023-03-19T00:33:14.001Z,3.62
2023-03-19T00:34:13.950Z,3.63
2023-03-19T00:35:13.907Z,3.62
2023-03-19T00:36:13.914Z,3.59
2023-03-19T00:37:13.878Z,3.58
2023-03-19T00:38:13.902Z,3.58
2023-03-19T00:39:13.853Z,3.58
2023-03-19T00:40:13.850Z,3.60
2023-03-19T00:41:13.866Z,3.62
2023-03-19T00:42:13.811Z,3.68
2023-03-19T00:43:13.836Z,3.66
2023-03-19T00:44:13.791Z,3.70
2023-03-19T00:45:13.766Z,3.83
2023-03-19T00:46:13.800Z,3.91
2023-03-19T00:47:13.768Z,3.91
2023-03-19T00:48:13.777Z,3.95
2023-03-19T00:49:13.751Z,4.01
2023-03-19T00:50:13.713Z,4.05
2023-03-19T00:51:13.711Z,4.08
2023-03-19T00:52:13.694Z,4.14
2023-03-19T00:53:13.724Z,4.12
2023-03-19T00:54:13.691Z,4.08
2023-03-19T00:55:13.643Z,4.08
2023-03-19T00:56:13.656Z,4.05
2023-03-19T00:57:13.629Z,3.99
2023-03-19T00:58:13.677Z,3.96
2023-03-19T00:59:13.618Z,3.92
2023-03-19T01:00:13.613Z,3.84
2023-03-19T01:01:13.647Z,3.80
2023-03-19T01:02:13.592Z,3.74
2023-03-19T01:03:13.616Z,3.68
2023-03-19T01:04:13.596Z,3.65
2023-03-19T01:05:13.567Z,3.62
2023-03-19T01:06:13.558Z,3.60
2023-03-19T01:07:13.518Z,3.60
2023-03-19T01:08:13.519Z,3.59
2023-03-19T01:09:13.551Z,3.55
2023-03-19T01:10:13.491Z,3.55
2023-03-19T01:11:13.501Z,3.50
2023-03-19T01:12:13.474Z,3.41
2023-03-19T01:13:13.468Z,3.42
2023-03-19T01:14:13.486Z,3.44
2023-03-19T01:15:13.438Z,3.40
2023-03-19T01:16:13.414Z,3.34
2023-03-19T01:17:13.418Z,3.31
2023-03-19T01:18:13.431Z,3.29
2023-03-19T01:19:13.402Z,3.29
2023-03-19T01:20:13.423Z,3.28
2023-03-19T01:21:13.378Z,3.29
2023-03-19T01:22:13.385Z,3.32
2023-03-19T01:23:13.390Z,3.31
2023-03-19T01:24:13.317Z,3.32
2023-03-19T01:25:13.316Z,3.32
2023-03-19T01:26:13.294Z,3.36
2023-03-19T01:27:13.301Z,3.32
2023-03-19T01:28:13.336Z,3.31
2023-03-19T01:29:13.298Z,3.25
2023-03-19T01:30:13.292Z,3.21
2023-03-19T01:31:13.304Z,3.18
2023-03-19T01:32:13.244Z,3.16
2023-03-19T01:33:13.330Z,3.11
2023-03-19T01:34:13.233Z,3.08
2023-03-19T01:35:13.202Z,3.07
2023-03-19T01:36:13.206Z,3.07
2023-03-19T01:37:13.192Z,3.04
2023-03-19T01:38:13.197Z,3.05
2023-03-19T01:39:13.175Z,3.08
2023-03-19T01:40:13.142Z,3.10
2023-03-19T01:41:13.144Z,3.11
2023-03-19T01:42:13.118Z,3.11
2023-03-19T01:43:13.151Z,3.11
2023-03-19T01:44:13.104Z,3.11
2023-03-19T01:45:13.122Z,3.11
2023-03-19T01:46:13.080Z,3.14
2023-03-19T01:47:13.077Z,3.13
2023-03-19T01:48:13.098Z,3.18
2023-03-19T01:49:13.072Z,3.16
2023-03-19T01:50:13.038Z,3.21
2023-03-19T01:51:13.034Z,3.18
2023-03-19T01:52:13.037Z,3.18
2023-03-19T01:53:13.057Z,3.21
2023-03-19T01:54:13.007Z,3.25
2023-03-19T01:55:12.985Z,3.29
2023-03-19T01:56:12.947Z,3.36
2023-03-19T01:57:12.974Z,3.34
2023-03-19T01:58:12.970Z,3.37
2023-03-19T01:59:12.956Z,3.40
2023-03-19T02:00:12.912Z,3.42
2023-03-19T02:01:13.007Z,3.45
2023-03-19T02:02:12.918Z,3.48
2023-03-19T02:03:12.962Z,3.51
2023-03-19T02:04:12.901Z,3.53
2023-03-19T02:05:12.893Z,3.55
2023-03-19T02:06:12.869Z,3.59
2023-03-19T02:07:12.856Z,3.60
2023-03-19T02:08:12.888Z,3.63
2023-03-19T02:09:12.826Z,3.65
2023-03-19T02:10:12.824Z,3.66
2023-03-19T02:11:12.815Z,3.66
2023-03-19T02:12:12.798Z,3.66
2023-03-19T02:13:12.856Z,3.68
2023-03-19T02:14:12.767Z,3.68
2023-03-19T02:15:12.749Z,3.68
2023-03-19T02:16:12.789Z,3.69
2023-03-19T02:17:12.731Z,3.68
2023-03-19T02:18:12.748Z,3.69
2023-03-19T02:19:12.712Z,3.70
2023-03-19T02:20:12.705Z,3.76
2023-03-19T02:21:12.684Z,3.74
2023-03-19T02:22:12.689Z,3.73
2023-03-19T02:23:12.690Z,3.68
2023-03-19T02:24:12.668Z,3.66
2023-03-19T02:25:12.655Z,3.62
2023-03-19T02:26:12.639Z,3.60
2023-03-19T02:27:12.623Z,3.59
2023-03-19T02:28:12.666Z,3.58
2023-03-19T02:29:12.597Z,3.58
2023-03-19T02:30:12.587Z,3.59
2023-03-19T02:31:12.630Z,3.56
2023-03-19T02:32:12.568Z,3.56
2023-03-19T02:33:12.552Z,3.53
2023-03-19T02:34:12.575Z,3.53
2023-03-19T02:35:12.537Z,3.51
2023-03-19T02:36:12.513Z,3.53
2023-03-19T02:37:12.522Z,3.50
2023-03-19T02:38:12.503Z,3.50
2023-03-19T02:39:12.523Z,3.50
2023-03-19T02:40:12.464Z,3.50
2023-03-19T02:41:12.470Z,3.50
2023-03-19T02:42:12.459Z,3.53
2023-03-19T02:43:12.434Z,3.56
2023-03-19T02:44:12.491Z,3.58
2023-03-19T02:45:12.424Z,3.65
2023-03-19T02:46:12.468Z,3.73
2023-03-19T02:47:12.389Z,3.78
2023-03-19T02:48:12.383Z,3.84
2023-03-19T02:49:12.414Z,3.86
2023-03-19T02:50:12.406Z,3.91
2023-03-19T02:51:12.344Z,3.94
2023-03-19T02:52:12.342Z,3.96
2023-03-19T02:53:12.322Z,4.01
2023-03-19T02:54:12.371Z,4.05
2023-03-19T02:55:12.304Z,4.12
2023-03-19T02:56:12.299Z,4.17
2023-03-19T02:57:12.297Z,4.23
2023-03-19T02:58:12.274Z,4.22
2023-03-19T02:59:12.282Z,4.22
2023-03-19T03:00:12.253Z,4.22
2023-03-19T03:01:12.259Z,4.23
2023-03-19T03:02:12.286Z,4.31
2023-03-19T03:03:12.216Z,4.34
2023-03-19T03:04:12.270Z,4.34
2023-03-19T03:05:12.242Z,4.38
2023-03-19T03:06:12.182Z,4.37
2023-03-19T03:07:12.244Z,4.41
2023-03-19T03:08:12.179Z,4.42
2023-03-19T03:09:12.179Z,4.41
2023-03-19T03:10:12.153Z,4.41
2023-03-19T03:11:12.141Z,4.40
2023-03-19T03:12:12.138Z,4.38
2023-03-19T03:13:12.098Z,4.37
2023-03-19T03:14:12.170Z,4.41
2023-03-19T03:15:12.096Z,4.45
2023-03-19T03:16:12.116Z,4.55
2023-03-19T03:17:12.054Z,4.59
2023-03-19T03:18:12.054Z,4.67
2023-03-19T03:19:12.085Z,4.73
2023-03-19T03:20:12.029Z,4.77
2023-03-19T03:21:12.036Z,4.77
2023-03-19T03:22:11.999Z,4.77
2023-03-19T03:23:11.995Z,4.78
2023-03-19T03:24:12.018Z,4.80
2023-03-19T03:25:11.976Z,4.93
2023-03-19T03:26:11.977Z,4.99
2023-03-19T03:27:11.973Z,4.99
2023-03-19T03:28:11.957Z,5.02
2023-03-19T03:29:11.963Z,4.99
2023-03-19T03:30:11.931Z,5.00
2023-03-19T03:31:11.916Z,5.00
2023-03-19T03:32:11.879Z,5.02
2023-03-19T03:33:11.891Z,5.07
2023-03-19T03:34:11.916Z,5.08
2023-03-19T03:35:11.885Z,5.12
2023-03-19T03:36:11.860Z,5.14
2023-03-19T03:37:11.840Z,5.18
2023-03-19T03:38:11.860Z,5.20
2023-03-19T03:39:11.856Z,5.30
2023-03-19T03:40:11.824Z,5.46
2023-03-19T03:41:11.798Z,5.62
2023-03-19T03:42:11.806Z,5.79
2023-03-19T03:43:11.771Z,6.07
2023-03-19T03:44:11.812Z,6.36
2023-03-19T03:45:11.740Z,6.49
2023-03-19T03:46:11.762Z,6.75
2023-03-19T03:47:11.720Z,6.92
2023-03-19T03:48:11.724Z,7.06
2023-03-19T03:49:11.734Z,7.05
2023-03-19T03:50:11.683Z,7.02
2023-03-19T03:51:11.708Z,6.96
2023-03-19T03:52:11.677Z,6.99
2023-03-19T03:53:11.660Z,7.07
2023-03-19T03:54:11.673Z,7.05
2023-03-19T03:55:11.636Z,7.02
2023-03-19T03:56:11.626Z,7.00
2023-03-19T03:57:11.626Z,6.97
2023-03-19T03:58:11.613Z,6.96
2023-03-19T03:59:11.616Z,6.93
2023-03-19T04:00:11.592Z,6.96
2023-03-19T04:01:11.569Z,6.95
2023-03-19T04:02:11.611Z,6.95
2023-03-19T04:03:11.571Z,6.97
2023-03-19T04:04:11.559Z,6.96
2023-03-19T04:05:11.515Z,6.92
2023-03-19T04:06:11.511Z,6.93
2023-03-19T04:07:11.509Z,6.96
2023-03-19T04:08:11.504Z,6.97
2023-03-19T04:09:11.518Z,6.96
2023-03-19T04:10:11.474Z,6.96
2023-03-19T04:11:11.453Z,7.00
2023-03-19T04:12:11.436Z,7.13
2023-03-19T04:13:11.428Z,7.10
2023-03-19T04:14:11.482Z,7.17
2023-03-19T04:15:11.404Z,7.18
2023-03-19T04:16:11.452Z,7.20
2023-03-19T04:17:11.377Z,7.29
2023-03-19T04:18:11.370Z,7.28
2023-03-19T04:19:11.403Z,7.28
2023-03-19T04:20:11.386Z,7.35
2023-03-19T04:21:11.369Z,7.36
2023-03-19T04:22:11.345Z,7.35
2023-03-19T04:23:11.306Z,7.29
2023-03-19T04:24:11.344Z,7.21
2023-03-19T04:25:11.301Z,7.10
2023-03-19T04:26:11.283Z,6.97
2023-03-19T04:27:11.283Z,6.89
2023-03-19T04:28:11.266Z,6.89
2023-03-19T04:29:11.241Z,6.79
2023-03-19T04:30:11.265Z,6.81
2023-03-19T04:31:11.277Z,6.79
2023-03-19T04:32:11.212Z,6.75
2023-03-19T04:33:11.242Z,6.78
2023-03-19T04:34:11.204Z,6.78
2023-03-19T04:35:11.215Z,6.72
2023-03-19T04:36:11.160Z,6.78
2023-03-19T04:37:11.140Z,6.87
2023-03-19T04:38:11.129Z,6.95
2023-03-19T04:39:11.134Z,6.96
2023-03-19T04:40:11.158Z,6.96
2023-03-19T04:41:11.117Z,6.93
2023-03-19T04:42:11.093Z,6.87
2023-03-19T04:43:11.130Z,6.81
2023-03-19T04:44:11.090Z,6.77
2023-03-19T04:45:11.102Z,6.72
2023-03-19T04:46:11.124Z,6.69
2023-03-19T04:47:11.025Z,6.66
2023-03-19T04:48:11.028Z,6.60
2023-03-19T04:49:11.031Z,6.52
2023-03-19T04:50:11.051Z,6.46
2023-03-19T04:51:10.992Z,6.39
2023-03-19T04:52:10.983Z,6.31
2023-03-19T04:53:10.986Z,6.20
2023-03-19T04:54:10.996Z,6.09
2023-03-19T04:55:10.980Z,5.99
2023-03-19T04:56:10.936Z,5.93
2023-03-19T04:57:10.938Z,5.84
2023-03-19T04:58:10.928Z,5.79
2023-03-19T04:59:10.901Z,5.73
2023-03-19T05:00:10.933Z,5.69
2023-03-19T05:01:10.939Z,5.66
2023-03-19T05:02:10.878Z,5.59
2023-03-19T05:03:10.879Z,5.56
2023-03-19T05:04:10.905Z,5.53
2023-03-19T05:05:10.863Z,5.47
2023-03-19T05:06:10.857Z,5.46
2023-03-19T05:07:10.819Z,5.41
2023-03-19T05:08:10.820Z,5.35
2023-03-19T05:09:10.795Z,5.28
2023-03-19T05:10:10.811Z,5.23
2023-03-19T05:11:10.755Z,5.20
2023-03-19T05:12:10.764Z,5.17
2023-03-19T05:13:10.771Z,5.15
2023-03-19T05:14:10.743Z,5.21
2023-03-19T05:15:10.766Z,5.17
2023-03-19T05:16:10.775Z,5.15
2023-03-19T05:17:10.716Z,5.11
2023-03-19T05:18:10.706Z,5.07
2023-03-19T05:19:10.681Z,5.02
2023-03-19T05:20:10.702Z,4.97
2023-03-19T05:21:10.651Z,4.97
2023-03-19T05:22:10.640Z,4.94
2023-03-19T05:23:10.640Z,4.92
2023-03-19T05:24:10.631Z,4.92
2023-03-19T05:25:10.674Z,4.93
2023-03-19T05:26:10.595Z,4.92
2023-03-19T05:27:10.588Z,4.92
2023-03-19T05:28:10.594Z,4.94
2023-03-19T05:29:10.564Z,4.96
2023-03-19T05:30:10.588Z,5.05
2023-03-19T05:31:10.582Z,5.10
2023-03-19T05:32:10.553Z,5.21
2023-03-19T05:33:10.659Z,5.32
2023-03-19T05:34:10.526Z,5.44
2023-03-19T05:35:10.537Z,5.90
2023-03-19T05:36:10.488Z,6.14
2023-03-19T05:37:10.482Z,6.22
2023-03-19T05:38:10.485Z,6.27
2023-03-19T05:39:10.476Z,6.27
2023-03-19T05:40:10.482Z,6.33
2023-03-19T05:41:10.436Z,6.31
2023-03-19T05:42:10.418Z,6.33
2023-03-19T05:43:10.451Z,6.30
2023-03-19T05:44:10.430Z,6.31
2023-03-19T05:45:10.423Z,6.35
2023-03-19T05:46:10.476Z,6.41
2023-03-19T05:47:10.373Z,6.41
2023-03-19T05:48:10.368Z,6.44
2023-03-19T05:49:10.370Z,6.42
2023-03-19T05:50:10.376Z,6.44
2023-03-19T05:51:10.366Z,6.42
2023-03-19T05:52:10.341Z,6.42
2023-03-19T05:53:10.295Z,6.41
2023-03-19T05:54:10.294Z,6.46
2023-03-19T05:55:10.317Z,6.49
2023-03-19T05:56:10.285Z,6.48
2023-03-19T05:57:10.240Z,6.42
2023-03-19T05:58:10.257Z,6.41
2023-03-19T05:59:10.240Z,6.38
2023-03-19T06:00:10.288Z,6.41
2023-03-19T06:01:10.224Z,6.46
2023-03-19T06:02:10.207Z,6.51
2023-03-19T06:03:10.267Z,6.66
2023-03-19T06:04:10.254Z,6.85
2023-03-19T06:05:10.215Z,6.96
2023-03-19T06:06:10.167Z,7.02
2023-03-19T06:07:10.151Z,7.06
2023-03-19T06:08:10.137Z,7.13
2023-03-19T06:09:10.126Z,7.11
2023-03-19T06:10:10.155Z,7.13
2023-03-19T06:11:10.084Z,7.14
2023-03-19T06:12:10.080Z,7.24
2023-03-19T06:13:10.058Z,7.35
2023-03-19T06:14:10.064Z,7.47
2023-03-19T06:15:10.067Z,7.63
2023-03-19T06:16:10.112Z,7.76
2023-03-19T06:17:10.020Z,7.82
2023-03-19T06:18:10.025Z,7.87
2023-03-19T06:19:09.994Z,7.85
2023-03-19T06:20:10.027Z,7.88
2023-03-19T06:21:09.993Z,7.85
2023-03-19T06:22:09.969Z,7.83
2023-03-19T06:23:09.968Z,7.87
2023-03-19T06:24:09.960Z,7.88
2023-03-19T06:25:09.973Z,7.88
2023-03-19T06:26:09.952Z,7.94
2023-03-19T06:27:09.901Z,8.01
2023-03-19T06:28:09.882Z,8.08
2023-03-19T06:29:09.899Z,8.15
2023-03-19T06:30:09.923Z,8.18
2023-03-19T06:31:09.907Z,8.28
2023-03-19T06:32:09.874Z,8.33
2023-03-19T06:33:09.950Z,8.33
2023-03-19T06:34:09.842Z,8.36
2023-03-19T06:35:09.880Z,8.37
2023-03-19T06:36:09.815Z,8.44
2023-03-19T06:37:09.801Z,8.53
2023-03-19T06:38:09.790Z,8.64
2023-03-19T06:39:09.787Z,8.70
2023-03-19T06:40:09.798Z,8.76
2023-03-19T06:41:09.774Z,8.82
2023-03-19T06:42:09.813Z,8.82
2023-03-19T06:43:09.742Z,8.84
2023-03-19T06:44:09.723Z,8.87
2023-03-19T06:45:09.975Z,8.91
2023-03-19T06:46:11.552Z,8.94
2023-03-19T06:47:09.715Z,8.97
2023-03-19T06:48:09.684Z,9.04
2023-03-19T06:49:09.788Z,9.22
2023-03-19T06:50:09.698Z,9.44
2023-03-19T06:51:09.786Z,9.69
2023-03-19T06:52:09.782Z,9.84
2023-03-19T06:53:09.645Z,9.87
2023-03-19T06:54:09.618Z,9.92
2023-03-19T06:55:09.604Z,9.97
2023-03-19T06:56:09.790Z,10.02
2023-03-19T06:57:09.596Z,10.01
2023-03-19T06:58:09.583Z,10.04
2023-03-19T06:59:09.567Z,10.05
2023-03-19T07:00:09.561Z,10.19
2023-03-19T07:01:09.646Z,10.33
2023-03-19T07:02:10.075Z,10.53
2023-03-19T07:03:09.530Z,10.63
2023-03-19T07:04:09.523Z,10.75
2023-03-19T07:05:09.503Z,11.17
2023-03-19T07:06:09.525Z,11.70
2023-03-19T07:07:09.636Z,12.18
2023-03-19T07:08:09.528Z,12.32
2023-03-19T07:09:09.464Z,12.45
2023-03-19T07:10:09.453Z,12.65
2023-03-19T07:11:09.536Z,12.93
2023-03-19T07:12:09.418Z,13.28
2023-03-19T07:13:09.407Z,13.37
2023-03-19T07:14:09.411Z,13.39
2023-03-19T07:15:09.375Z,13.15
2023-03-19T07:16:09.465Z,13.11
2023-03-19T07:17:10.442Z,13.20
2023-03-19T07:18:09.369Z,13.57
2023-03-19T07:19:09.364Z,13.47
2023-03-19T07:20:09.340Z,14.18
2023-03-19T07:21:09.348Z,14.86
2023-03-19T07:22:09.316Z,15.68
2023-03-19T07:23:09.301Z,16.05
2023-03-19T07:24:09.275Z,16.81
2023-03-19T07:25:09.281Z,17.04
2023-03-19T07:26:09.298Z,16.83
2023-03-19T07:27:09.250Z,16.53
2023-03-19T07:28:09.247Z,17.14
2023-03-19T07:29:09.233Z,16.99
2023-03-19T07:30:09.228Z,16.74
2023-03-19T07:31:09.240Z,15.55
2023-03-19T07:32:09.208Z,15.24
2023-03-19T07:33:09.220Z,14.79
2023-03-19T07:34:09.167Z,14.78
2023-03-19T07:35:09.191Z,14.62
2023-03-19T07:36:09.180Z,14.85
2023-03-19T07:37:09.120Z,15.25
2023-03-19T07:38:09.125Z,16.10
2023-03-19T07:39:09.117Z,16.31
2023-03-19T07:40:09.098Z,15.76
2023-03-19T07:41:09.138Z,15.70
2023-03-19T07:42:09.083Z,15.49
2023-03-19T07:43:09.048Z,15.00
2023-03-19T07:44:09.030Z,14.69
2023-03-19T07:45:09.033Z,14.48
2023-03-19T07:46:09.124Z,14.26
2023-03-19T07:47:19.116Z,14.15
2023-03-19T07:48:10.044Z,14.08
2023-03-19T07:49:09.017Z,14.00
2023-03-19T07:50:08.977Z,14.48
2023-03-19T07:51:08.993Z,15.06
2023-03-19T07:52:08.965Z,15.62
2023-03-19T07:53:08.953Z,16.66
2023-03-19T07:54:08.948Z,16.86
2023-03-19T07:55:08.926Z,16.93
2023-03-19T07:56:08.939Z,16.00
2023-03-19T07:57:08.910Z,15.98
2023-03-19T07:58:08.881Z,16.12
2023-03-19T07:59:08.888Z,16.17
2023-03-19T08:00:08.862Z,15.90
2023-03-19T08:01:08.995Z,15.86
2023-03-19T08:02:08.902Z,15.25
2023-03-19T08:03:08.843Z,15.04
2023-03-19T08:04:08.819Z,15.39
2023-03-19T08:05:08.810Z,15.37
2023-03-19T08:06:08.826Z,15.33
2023-03-19T08:07:08.779Z,15.18
2023-03-19T08:08:08.802Z,14.86
2023-03-19T08:09:08.758Z,14.59
2023-03-19T08:10:08.770Z,14.40
2023-03-19T08:11:08.790Z,14.30
2023-03-19T08:12:08.754Z,14.41
2023-03-19T08:13:08.856Z,14.63
2023-03-19T08:14:08.729Z,14.84
2023-03-19T08:15:08.677Z,14.94
2023-03-19T08:16:08.737Z,15.25
2023-03-19T08:17:08.769Z,15.59
2023-03-19T08:18:08.651Z,15.82
2023-03-19T08:19:08.674Z,16.01
2023-03-19T08:20:08.643Z,16.12
2023-03-19T08:21:08.677Z,16.02
2023-03-19T08:22:08.639Z,15.68
2023-03-19T08:23:08.596Z,15.57
2023-03-19T08:24:08.728Z,15.64
2023-03-19T08:25:08.683Z,15.67
2023-03-19T08:26:08.629Z,15.67
2023-03-19T08:27:08.555Z,15.64
2023-03-19T08:28:08.538Z,16.29
2023-03-19T08:29:08.535Z,16.58
2023-03-19T08:30:08.518Z,16.93
2023-03-19T08:31:08.634Z,17.48
2023-03-19T08:32:08.507Z,18.00
2023-03-19T08:33:08.601Z,18.03
2023-03-19T08:34:08.466Z,17.38
2023-03-19T08:35:08.480Z,17.34
2023-03-19T08:36:08.498Z,17.64
2023-03-19T08:37:08.445Z,17.42
2023-03-19T08:38:08.454Z,17.04
2023-03-19T08:39:08.416Z,16.64
2023-03-19T08:40:08.435Z,16.09
2023-03-19T08:41:08.463Z,15.86
2023-03-19T08:42:08.379Z,15.65
2023-03-19T08:43:08.357Z,15.57
2023-03-19T08:44:08.351Z,15.40
2023-03-19T08:45:08.364Z,15.58
2023-03-19T08:46:08.395Z,15.67
2023-03-19T08:47:08.394Z,15.64
2023-03-19T08:48:08.323Z,15.65
2023-03-19T08:49:08.335Z,15.62
2023-03-19T08:50:08.292Z,15.37
2023-03-19T08:51:08.312Z,15.44
2023-03-19T08:52:08.278Z,15.86
2023-03-19T08:53:08.276Z,16.04
2023-03-19T08:54:08.261Z,16.21
2023-03-19T08:55:08.268Z,16.13
2023-03-19T08:56:08.268Z,15.72
2023-03-19T08:57:08.247Z,15.72
2023-03-19T08:58:08.206Z,15.22
2023-03-19T08:59:08.210Z,15.27
2023-03-19T09:00:08.207Z,15.11
2023-03-19T09:01:08.208Z,15.36
2023-03-19T09:02:08.282Z,15.83
2023-03-19T09:03:08.179Z,15.83
2023-03-19T09:04:08.142Z,16.15
2023-03-19T09:05:08.137Z,16.66
2023-03-19T09:06:08.171Z,16.94
2023-03-19T09:07:08.142Z,17.12
2023-03-19T09:08:08.081Z,17.06
2023-03-19T09:09:08.089Z,17.01
2023-03-19T09:10:08.129Z,16.56
2023-03-19T09:11:08.176Z,16.51
2023-03-19T09:12:08.067Z,16.24
2023-03-19T09:13:08.046Z,16.33
2023-03-19T09:14:08.021Z,16.15
2023-03-19T09:15:08.056Z,16.00
2023-03-19T09:16:08.145Z,16.26
2023-03-19T09:17:08.022Z,16.61
2023-03-19T09:18:07.979Z,16.54
2023-03-19T09:19:07.977Z,17.06
2023-03-19T09:20:08.001Z,17.41
2023-03-19T09:21:07.970Z,17.23
2023-03-19T09:22:07.928Z,17.22
2023-03-19T09:23:07.930Z,17.24
2023-03-19T09:24:07.937Z,16.72
2023-03-19T09:25:07.937Z,16.39
2023-03-19T09:26:07.893Z,16.68
2023-03-19T09:27:07.904Z,17.26
2023-03-19T09:28:07.902Z,17.60
2023-03-19T09:29:07.859Z,17.80
2023-03-19T09:30:07.888Z,17.63
2023-03-19T09:31:07.883Z,17.78
2023-03-19T09:32:07.840Z,18.25
2023-03-19T09:33:07.903Z,18.58
2023-03-19T09:34:07.801Z,18.78
2023-03-19T09:35:07.866Z,18.65
2023-03-19T09:36:07.810Z,18.11
2023-03-19T09:37:07.793Z,18.11
2023-03-19T09:38:07.776Z,18.70
2023-03-19T09:39:07.749Z,18.66
2023-03-19T09:40:07.764Z,18.41
2023-03-19T09:41:07.739Z,17.57
2023-03-19T09:42:07.721Z,17.72
2023-03-19T09:43:07.704Z,18.16
2023-03-19T09:44:07.682Z,18.13
2023-03-19T09:45:07.707Z,17.70
2023-03-19T09:46:07.660Z,17.20
2023-03-19T09:47:07.728Z,17.39
2023-03-19T09:48:07.639Z,17.89
2023-03-19T09:49:07.660Z,17.89
2023-03-19T09:50:07.676Z,17.97
2023-03-19T09:51:07.624Z,17.31
2023-03-19T09:52:09.550Z,17.26
2023-03-19T09:53:07.597Z,17.38
2023-03-19T09:54:07.582Z,17.67
2023-03-19T09:55:07.600Z,18.05
2023-03-19T09:56:07.571Z,18.43
2023-03-19T09:57:07.540Z,18.29
2023-03-19T09:58:07.534Z,18.40
2023-03-19T09:59:07.528Z,18.33
2023-03-19T10:00:07.539Z,18.23
2023-03-19T10:01:07.625Z,17.70
2023-03-19T10:02:07.525Z,17.48
2023-03-19T10:03:07.478Z,17.24
2023-03-19T10:04:07.520Z,17.01
2023-03-19T10:05:07.501Z,16.90
2023-03-19T10:06:07.461Z,17.29
2023-03-19T10:07:07.449Z,17.68
2023-03-19T10:08:08.446Z,17.83
2023-03-19T10:09:07.431Z,17.68
2023-03-19T10:10:07.442Z,17.16
2023-03-19T10:11:07.403Z,16.74
2023-03-19T10:12:07.429Z,17.01
2023-03-19T10:13:07.359Z,16.99
2023-03-19T10:14:07.361Z,17.33
2023-03-19T10:15:07.375Z,17.49
2023-03-19T10:16:07.478Z,17.86
2023-03-19T10:17:07.386Z,18.04
2023-03-19T10:18:07.329Z,18.04
2023-03-19T10:19:07.300Z,17.64
2023-03-19T10:20:07.333Z,17.31
2023-03-19T10:21:07.294Z,17.05
2023-03-19T10:22:07.266Z,16.89
2023-03-19T10:23:07.261Z,16.75
2023-03-19T10:24:07.242Z,16.79
2023-03-19T10:25:07.249Z,16.94
2023-03-19T10:26:07.240Z,17.23
2023-03-19T10:27:07.218Z,16.99
2023-03-19T10:28:07.201Z,17.42
2023-03-19T10:29:07.204Z,17.54
2023-03-19T10:30:07.216Z,17.54
2023-03-19T10:31:07.212Z,17.90
2023-03-19T10:32:07.208Z,17.83
2023-03-19T10:33:07.198Z,17.97
2023-03-19T10:34:07.158Z,17.79
2023-03-19T10:35:07.191Z,17.56
2023-03-19T10:36:07.173Z,17.29
2023-03-19T10:37:07.097Z,17.12
2023-03-19T10:38:07.093Z,17.56
2023-03-19T10:39:07.094Z,18.00
2023-03-19T10:40:07.125Z,18.29
2023-03-19T10:41:07.072Z,18.66
2023-03-19T10:42:07.056Z,18.81
2023-03-19T10:43:07.045Z,18.83
2023-03-19T10:44:07.014Z,18.93
2023-03-19T10:45:07.114Z,18.63
2023-03-19T10:46:07.029Z,18.18
2023-03-19T10:47:06.993Z,17.48
2023-03-19T10:48:06.995Z,17.44
2023-03-19T10:49:06.974Z,17.41
2023-03-19T10:50:07.062Z,17.68
2023-03-19T10:51:07.069Z,17.54
2023-03-19T10:52:06.960Z,17.67
2023-03-19T10:53:06.939Z,17.80
2023-03-19T10:54:06.936Z,18.04
2023-03-19T10:55:06.929Z,18.20
2023-03-19T10:56:06.898Z,18.28
2023-03-19T10:57:06.897Z,18.52
2023-03-19T10:58:06.883Z,18.44
2023-03-19T10:59:06.847Z,-39.96
2023-03-19T11:00:06.907Z,18.11
2023-03-19T11:01:06.992Z,18.18
2023-03-19T11:02:06.848Z,18.60
2023-03-19T11:03:06.823Z,18.88
2023-03-19T11:04:06.916Z,19.00
2023-03-19T11:05:06.960Z,18.74
2023-03-19T11:06:06.787Z,18.29
2023-03-19T11:07:06.771Z,18.19
2023-03-19T11:08:06.797Z,18.19
2023-03-19T11:09:06.840Z,17.42
2023-03-19T11:10:06.792Z,17.36
2023-03-19T11:11:06.734Z,17.46
2023-03-19T11:12:06.802Z,17.51
2023-03-19T11:13:06.710Z,17.83
2023-03-19T11:14:06.675Z,18.11
2023-03-19T11:15:06.708Z,18.43
2023-03-19T11:16:06.731Z,18.71
2023-03-19T11:17:06.686Z,18.92
2023-03-19T11:18:06.657Z,19.12
2023-03-19T11:19:06.632Z,18.99
2023-03-19T11:20:06.656Z,18.53
2023-03-19T11:21:06.617Z,18.04
2023-03-19T11:22:06.617Z,17.68
2023-03-19T11:23:06.620Z,17.52
2023-03-19T11:24:06.574Z,17.42
2023-03-19T11:25:06.614Z,17.60
2023-03-19T11:26:06.582Z,17.26
2023-03-19T11:27:06.568Z,17.14
2023-03-19T11:28:06.535Z,17.30
2023-03-19T11:29:06.531Z,17.39
2023-03-19T11:30:06.551Z,16.93
2023-03-19T11:31:06.489Z,16.81
2023-03-19T11:32:20.720Z,16.84
2023-03-19T11:33:07.548Z,16.94
2023-03-19T11:34:06.482Z,17.16
2023-03-19T11:35:06.452Z,17.38
2023-03-19T11:36:06.531Z,17.68
2023-03-19T11:37:06.461Z,17.82
2023-03-19T11:38:06.417Z,17.51
2023-03-19T11:39:06.419Z,17.49
2023-03-19T11:40:06.421Z,17.52
2023-03-19T11:41:06.435Z,17.56
2023-03-19T11:42:06.361Z,17.29
2023-03-19T11:43:06.357Z,17.26
2023-03-19T11:44:06.375Z,17.09
2023-03-19T11:45:06.393Z,16.75
2023-03-19T11:46:06.372Z,16.72
2023-03-19T11:47:14.876Z,16.78
2023-03-19T11:48:07.308Z,16.78
2023-03-19T11:49:06.297Z,16.84
2023-03-19T11:50:06.348Z,16.99
2023-03-19T11:51:06.276Z,16.94
2023-03-19T11:52:06.275Z,16.87
2023-03-19T11:53:06.245Z,16.87
2023-03-19T11:54:06.256Z,17.02
2023-03-19T11:55:06.262Z,17.09
2023-03-19T11:56:06.221Z,17.24
2023-03-19T11:57:06.210Z,17.23
2023-03-19T11:58:06.220Z,17.08
2023-03-19T11:59:06.197Z,17.38
2023-03-19T12:00:06.234Z,17.67
2023-03-19T12:01:06.160Z,17.90
2023-03-19T12:02:06.188Z,17.71
2023-03-19T12:03:06.136Z,17.87
2023-03-19T12:04:06.122Z,18.08
2023-03-19T12:05:06.166Z,18.11
2023-03-19T12:06:07.304Z,17.89
2023-03-19T12:07:06.091Z,17.48
2023-03-19T12:08:06.103Z,17.20
2023-03-19T12:09:06.090Z,17.04
2023-03-19T12:10:06.363Z,17.12
2023-03-19T12:11:06.034Z,17.15
2023-03-19T12:12:06.059Z,17.42
2023-03-19T12:13:06.019Z,17.63
2023-03-19T12:14:06.019Z,17.78
2023-03-19T12:15:06.063Z,17.79
2023-03-19T12:16:06.028Z,17.89
2023-03-19T12:17:05.984Z,17.56
2023-03-19T12:18:05.994Z,17.44
2023-03-19T12:19:05.974Z,17.59
2023-03-19T12:20:06.014Z,17.30
2023-03-19T12:21:05.943Z,17.23
2023-03-19T12:22:05.913Z,17.01
2023-03-19T12:23:05.933Z,17.11
2023-03-19T12:24:05.928Z,17.30
2023-03-19T12:25:05.944Z,17.42
2023-03-19T12:26:05.969Z,17.42
2023-03-19T12:27:05.903Z,17.22
2023-03-19T12:28:05.905Z,17.05
2023-03-19T12:29:05.860Z,17.20
2023-03-19T12:30:05.906Z,17.49
2023-03-19T12:31:05.847Z,17.52
2023-03-19T12:32:05.825Z,17.70
2023-03-19T12:33:05.827Z,17.49
2023-03-19T12:34:05.815Z,17.33
2023-03-19T12:35:05.826Z,17.30
2023-03-19T12:36:05.891Z,17.31
2023-03-19T12:37:05.761Z,17.29
2023-03-19T12:38:05.769Z,17.24
2023-03-19T12:39:05.725Z,17.31
2023-03-19T12:40:05.769Z,17.26
2023-03-19T12:41:05.710Z,17.14
2023-03-19T12:42:05.708Z,17.11
2023-03-19T12:43:05.693Z,17.19
2023-03-19T12:44:05.691Z,17.14
2023-03-19T12:45:05.701Z,17.29
2023-03-19T12:46:05.691Z,17.16
2023-03-19T12:47:05.637Z,16.91
2023-03-19T12:48:05.644Z,17.09
2023-03-19T12:49:05.648Z,17.29
2023-03-19T12:50:05.659Z,17.41
2023-03-19T12:51:05.616Z,17.39
2023-03-19T12:52:05.618Z,17.20
2023-03-19T12:53:05.599Z,17.19
2023-03-19T12:54:05.599Z,17.46
2023-03-19T12:55:05.600Z,17.65
2023-03-19T12:56:05.583Z,17.83
2023-03-19T12:57:05.582Z,17.86
2023-03-19T12:58:05.541Z,18.01
2023-03-19T12:59:05.540Z,18.19
2023-03-19T13:00:05.564Z,18.26
2023-03-19T13:01:05.521Z,18.31
2023-03-19T13:02:05.649Z,18.34
2023-03-19T13:03:05.454Z,18.40
2023-03-19T13:04:05.480Z,18.43
2023-03-19T13:05:05.574Z,18.34
2023-03-19T13:06:05.515Z,18.20